createdAt,value
2022-12-03T00:00:16.482Z,5.37
2022-12-03T00:02:44.719Z,5.38
2022-12-03T00:05:13.133Z,5.40
2022-12-03T00:07:42.727Z,5.44
2022-12-03T00:10:11.828Z,5.44
2022-12-03T00:12:40.115Z,5.43
2022-12-03T00:15:10.747Z,5.44
2022-12-03T00:17:39.194Z,5.45
2022-12-03T00:20:09.757Z,5.44
2022-12-03T00:22:37.956Z,5.46
2022-12-03T00:25:09.488Z,5.48
2022-12-03T00:27:37.639Z,5.49
2022-12-03T00:30:08.449Z,5.51
2022-12-03T00:32:39.610Z,5.54
2022-12-03T00:35:08.793Z,5.55
2022-12-03T00:37:36.992Z,5.55
2022-12-03T00:40:08.063Z,5.54
2022-12-03T00:42:36.255Z,5.55
2022-12-03T00:45:05.129Z,5.52
2022-12-03T00:47:33.257Z,5.53
2022-12-03T00:50:01.427Z,5.51
2022-12-03T00:52:29.579Z,5.55
2022-12-03T00:54:57.769Z,5.55
2022-12-03T00:57:27.367Z,5.56
2022-12-03T00:59:55.518Z,5.56
2022-12-03T01:02:23.932Z,5.57
2022-12-03T01:04:52.553Z,5.60
2022-12-03T01:07:21.024Z,5.56
2022-12-03T01:09:49.315Z,5.54
2022-12-03T01:12:17.534Z,5.54
2022-12-03T01:14:47.333Z,5.54
2022-12-03T01:17:15.513Z,5.54
2022-12-03T01:19:48.300Z,5.50
2022-12-03T01:22:16.809Z,5.49
2022-12-03T01:24:44.951Z,5.47
2022-12-03T01:27:13.103Z,5.42
2022-12-03T01:29:41.199Z,5.33
2022-12-03T01:32:19.782Z,5.22
2022-12-03T01:34:50.352Z,5.14
2022-12-03T01:37:23.439Z,5.09
2022-12-03T01:39:51.589Z,5.07
2022-12-03T01:42:36.460Z,5.06
2022-12-03T01:45:05.856Z,5.04
2022-12-03T01:47:37.744Z,5.06
2022-12-03T01:50:09.171Z,5.06
2022-12-03T01:52:39.822Z,5.09
2022-12-03T01:55:15.348Z,5.11
2022-12-03T01:57:47.508Z,5.12
2022-12-03T02:00:18.947Z,5.12
2022-12-03T02:02:51.719Z,5.12
2022-12-03T02:05:24.052Z,5.14
2022-12-03T02:07:52.334Z,5.16
2022-12-03T02:10:25.170Z,5.18
2022-12-03T02:12:59.774Z,5.19
2022-12-03T02:15:28.240Z,5.20
2022-12-03T02:17:58.600Z,5.22
2022-12-03T02:20:27.273Z,5.24
2022-12-03T02:23:04.561Z,5.23
2022-12-03T02:25:36.803Z,5.22
2022-12-03T02:28:07.781Z,5.24
2022-12-03T02:30:36.373Z,5.25
2022-12-03T02:33:05.215Z,5.27
2022-12-03T02:35:35.747Z,5.26
2022-12-03T02:38:16.691Z,5.25
2022-12-03T02:40:48.935Z,5.25
2022-12-03T02:43:17.775Z,5.25
2022-12-03T02:45:49.356Z,5.25
2022-12-03T02:48:20.362Z,5.26
2022-12-03T02:50:53.754Z,5.29
2022-12-03T02:53:27.081Z,5.31
2022-12-03T02:56:00.544Z,5.33
2022-12-03T02:58:32.782Z,5.31
2022-12-03T03:01:03.470Z,5.29
2022-12-03T03:03:33.467Z,5.28
2022-12-03T03:06:03.758Z,5.27
2022-12-03T03:08:32.462Z,5.29
2022-12-03T03:11:03.573Z,5.29
2022-12-03T03:13:33.888Z,5.30
2022-12-03T03:16:04.008Z,5.31
2022-12-03T03:18:33.265Z,5.32
2022-12-03T03:21:01.827Z,5.31
2022-12-03T03:23:30.064Z,5.32
2022-12-03T03:26:03.714Z,5.31
2022-12-03T03:28:32.871Z,5.29
2022-12-03T03:31:03.418Z,5.27
2022-12-03T03:33:32.399Z,5.26
2022-12-03T03:36:01.453Z,5.25
2022-12-03T03:38:30.475Z,5.25
2022-12-03T03:41:03.110Z,5.25
2022-12-03T03:43:34.730Z,5.23
2022-12-03T03:46:04.971Z,5.22
2022-12-03T03:48:34.114Z,5.22
2022-12-03T03:51:03.571Z,5.20
2022-12-03T03:53:32.555Z,5.19
2022-12-03T03:56:02.240Z,5.19
2022-12-03T03:58:30.443Z,5.18
2022-12-03T04:00:58.674Z,5.17
2022-12-03T04:03:26.906Z,5.15
2022-12-03T04:05:55.183Z,5.16
2022-12-03T04:08:23.369Z,5.16
2022-12-03T04:11:08.811Z,5.17
2022-12-03T04:13:38.273Z,5.17
2022-12-03T04:16:07.085Z,5.15
2022-12-03T04:18:44.486Z,5.13
2022-12-03T04:21:28.916Z,5.12
2022-12-03T04:23:57.192Z,5.12
2022-12-03T04:26:43.039Z,5.12
2022-12-03T04:29:13.411Z,5.12
2022-12-03T04:31:59.514Z,5.13
2022-12-03T04:34:45.246Z,5.13
2022-12-03T04:37:13.599Z,5.11
2022-12-03T04:39:42.369Z,5.10
2022-12-03T04:42:10.635Z,5.10
2022-12-03T04:44:40.147Z,5.10
2022-12-03T04:47:11.521Z,5.11
2022-12-03T04:49:42.488Z,5.10
2022-12-03T04:52:12.409Z,5.10
2022-12-03T04:54:42.332Z,5.10
2022-12-03T04:57:11.589Z,5.10
2022-12-03T04:59:41.643Z,5.09
2022-12-03T05:02:10.126Z,5.09
2022-12-03T05:04:38.516Z,5.06
2022-12-03T05:07:06.704Z,5.06
2022-12-03T05:09:35.010Z,5.04
2022-12-03T05:12:04.001Z,5.03
2022-12-03T05:14:32.331Z,5.01
2022-12-03T05:17:01.981Z,4.98
2022-12-03T05:19:45.082Z,4.97
2022-12-03T05:22:13.337Z,4.94
2022-12-03T05:24:41.460Z,4.94
2022-12-03T05:27:09.669Z,4.92
2022-12-03T05:29:37.841Z,4.91
2022-12-03T05:32:07.643Z,4.87
2022-12-03T05:34:35.901Z,4.85
2022-12-03T05:37:04.111Z,4.81
2022-12-03T05:39:32.427Z,4.79
2022-12-03T05:42:18.204Z,4.75
2022-12-03T05:44:48.976Z,4.72
2022-12-03T05:47:18.815Z,4.69
2022-12-03T05:49:47.111Z,4.71
2022-12-03T05:52:15.214Z,4.68
2022-12-03T05:54:43.469Z,4.66
2022-12-03T05:57:11.939Z,4.66
2022-12-03T05:59:40.417Z,4.63
2022-12-03T06:02:08.689Z,4.62
2022-12-03T06:04:38.544Z,4.60
2022-12-03T06:07:09.700Z,4.59
2022-12-03T06:09:41.927Z,4.58
2022-12-03T06:12:10.135Z,4.59
2022-12-03T06:14:38.260Z,4.56
2022-12-03T06:17:06.425Z,4.54
2022-12-03T06:19:34.646Z,4.55
2022-12-03T06:22:04.186Z,4.54
2022-12-03T06:24:32.391Z,4.54
2022-12-03T06:27:00.564Z,4.53
2022-12-03T06:29:28.872Z,4.54
2022-12-03T06:31:57.072Z,4.52
2022-12-03T06:34:25.554Z,4.52
2022-12-03T06:36:53.671Z,4.52
2022-12-03T06:39:23.617Z,4.50
2022-12-03T06:41:52.007Z,4.51
2022-12-03T06:44:20.447Z,4.49
2022-12-03T06:47:03.806Z,4.46
2022-12-03T06:49:32.449Z,4.46
2022-12-03T06:52:00.623Z,4.46
2022-12-03T06:54:30.169Z,4.43
2022-12-03T06:56:58.293Z,4.43
2022-12-03T06:59:26.965Z,4.42
2022-12-03T07:01:55.191Z,4.40
2022-12-03T07:04:23.435Z,4.39
2022-12-03T07:06:52.233Z,4.38
2022-12-03T07:09:20.630Z,4.38
2022-12-03T07:11:50.155Z,4.37
2022-12-03T07:14:18.272Z,4.36
2022-12-03T07:16:46.479Z,4.33
2022-12-03T07:19:15.713Z,4.31
2022-12-03T07:21:43.952Z,4.31
2022-12-03T07:24:12.294Z,4.29
2022-12-03T07:26:40.553Z,4.27
2022-12-03T07:29:10.119Z,4.28
2022-12-03T07:31:38.290Z,4.28
2022-12-03T07:34:06.570Z,4.27
2022-12-03T07:36:34.811Z,4.27
2022-12-03T07:39:03.003Z,4.27
2022-12-03T07:41:32.680Z,4.26
2022-12-03T07:44:00.929Z,4.25
2022-12-03T07:46:30.557Z,4.26
2022-12-03T07:48:58.819Z,4.27
2022-12-03T07:51:31.958Z,4.26
2022-12-03T07:54:00.756Z,4.26
2022-12-03T07:56:28.917Z,4.26
2022-12-03T07:58:57.133Z,4.25
2022-12-03T08:01:25.427Z,4.24
2022-12-03T08:03:55.025Z,4.24
2022-12-03T08:06:23.252Z,4.21
2022-12-03T08:08:51.804Z,4.20
2022-12-03T08:11:20.062Z,4.20
2022-12-03T08:13:48.192Z,4.18
2022-12-03T08:16:19.868Z,4.15
2022-12-03T08:18:58.992Z,4.16
2022-12-03T08:21:30.919Z,4.14
2022-12-03T08:23:59.708Z,4.13
2022-12-03T08:26:29.771Z,4.12
2022-12-03T08:28:58.308Z,4.09
2022-12-03T08:31:33.157Z,4.10
2022-12-03T08:34:20.101Z,4.08
2022-12-03T08:36:49.688Z,4.08
2022-12-03T08:39:31.057Z,4.08
2022-12-03T08:42:27.631Z,4.09
2022-12-03T08:44:56.517Z,4.09
2022-12-03T08:47:25.898Z,4.10
2022-12-03T08:49:59.900Z,4.09
2022-12-03T08:52:34.265Z,4.10
2022-12-03T08:55:30.530Z,4.09
2022-12-03T08:57:59.424Z,4.09
2022-12-03T09:00:28.012Z,4.11
2022-12-03T09:03:00.736Z,4.14
2022-12-03T09:05:33.441Z,4.10
2022-12-03T09:08:01.800Z,4.14
2022-12-03T09:10:30.122Z,4.14
2022-12-03T09:12:58.248Z,4.14
2022-12-03T09:15:26.374Z,4.15
2022-12-03T09:17:54.498Z,4.14
2022-12-03T09:20:22.676Z,4.16
2022-12-03T09:22:52.382Z,4.17
2022-12-03T09:25:20.555Z,4.18
2022-12-03T09:27:48.924Z,4.18
2022-12-03T09:30:17.675Z,4.18
2022-12-03T09:32:46.060Z,4.17
2022-12-03T09:35:14.248Z,4.15
2022-12-03T09:37:42.479Z,4.15
2022-12-03T09:40:14.133Z,4.15
2022-12-03T09:42:42.591Z,4.15
2022-12-03T09:45:14.319Z,4.17
2022-12-03T09:47:47.774Z,4.20
2022-12-03T09:50:20.513Z,4.24
2022-12-03T09:52:51.031Z,4.29
2022-12-03T09:55:24.993Z,4.32
2022-12-03T09:57:53.854Z,4.32
2022-12-03T10:00:24.777Z,4.37
2022-12-03T10:02:55.418Z,4.38
2022-12-03T10:05:24.576Z,4.43
2022-12-03T10:07:53.631Z,4.47
2022-12-03T10:10:25.612Z,4.47
2022-12-03T10:12:54.210Z,4.51
2022-12-03T10:15:25.082Z,4.54
2022-12-03T10:17:55.868Z,4.52
2022-12-03T10:20:26.526Z,4.53
2022-12-03T10:22:54.820Z,4.50
2022-12-03T10:25:25.215Z,4.52
2022-12-03T10:27:59.896Z,4.56
2022-12-03T10:30:29.535Z,4.59
2022-12-03T10:33:02.599Z,4.58
2022-12-03T10:35:41.030Z,4.57
2022-12-03T10:38:22.262Z,4.58
2022-12-03T10:40:52.451Z,4.58
2022-12-03T10:43:25.910Z,4.60
2022-12-03T10:46:13.370Z,4.62
2022-12-03T10:48:41.677Z,4.63
2022-12-03T10:51:22.121Z,4.65
2022-12-03T10:53:51.757Z,4.69
2022-12-03T10:56:26.362Z,4.73
2022-12-03T10:58:55.027Z,4.78
2022-12-03T11:01:25.905Z,4.81
2022-12-03T11:03:56.595Z,4.84
2022-12-03T11:06:25.860Z,4.87
2022-12-03T11:08:59.607Z,4.95
2022-12-03T11:11:32.768Z,5.03
2022-12-03T11:14:02.117Z,5.03
2022-12-03T11:17:09.875Z,4.93
2022-12-03T11:19:50.296Z,4.87
2022-12-03T11:22:40.725Z,4.88
2022-12-03T11:28:54.498Z,4.98
2022-12-03T11:31:38.407Z,4.96
2022-12-03T11:34:49.731Z,4.97
2022-12-03T11:37:25.995Z,5.01
2022-12-03T11:40:39.141Z,5.03
2022-12-03T11:43:12.000Z,5.08
2022-12-03T11:45:41.619Z,5.09
2022-12-03T11:48:15.505Z,5.11
2022-12-03T11:50:45.568Z,5.18
2022-12-03T11:53:18.809Z,5.17
2022-12-03T11:55:53.136Z,5.17
2022-12-03T11:58:26.434Z,5.17
2022-12-03T12:00:59.639Z,5.12
2022-12-03T12:03:33.501Z,5.09
2022-12-03T12:06:05.562Z,5.08
2022-12-03T12:08:35.460Z,5.10
2022-12-03T12:11:03.999Z,5.08
2022-12-03T12:13:55.615Z,5.08
2022-12-03T12:16:58.357Z,5.04
2022-12-03T12:19:39.871Z,5.07
2022-12-03T12:22:31.083Z,5.06
2022-12-03T12:25:01.568Z,5.09
2022-12-03T12:27:37.479Z,5.15
2022-12-03T12:30:10.915Z,5.23
2022-12-03T12:32:47.567Z,5.23
2022-12-03T12:35:19.982Z,5.22
2022-12-03T12:37:59.149Z,5.22
2022-12-03T12:40:30.617Z,5.27
2022-12-03T12:43:03.024Z,5.26
2022-12-03T12:45:37.487Z,5.27
2022-12-03T12:48:18.270Z,5.33
2022-12-03T12:50:49.096Z,5.39
2022-12-03T12:53:24.822Z,5.39
2022-12-03T12:55:58.086Z,5.34
2022-12-03T12:58:28.930Z,5.28
2022-12-03T13:01:00.577Z,5.31
2022-12-03T13:03:34.852Z,5.36
2022-12-03T13:06:04.142Z,5.34
2022-12-03T13:08:34.737Z,5.29
2022-12-03T13:11:04.027Z,5.21
2022-12-03T13:13:43.069Z,5.13
2022-12-03T13:16:18.342Z,5.05
2022-12-03T13:18:50.778Z,5.00
2022-12-03T13:21:25.563Z,4.94
2022-12-03T13:23:56.592Z,4.91
2022-12-03T13:26:37.677Z,4.88
2022-12-03T13:29:13.757Z,4.76
2022-12-03T13:31:44.427Z,4.72
2022-12-03T13:34:22.891Z,4.71
2022-12-03T13:36:57.515Z,4.68
2022-12-03T13:39:32.480Z,4.62
2022-12-03T13:42:49.340Z,4.55
2022-12-03T13:45:36.829Z,4.51
2022-12-03T13:48:21.207Z,4.46
2022-12-03T13:50:53.005Z,4.43
2022-12-03T13:53:24.192Z,4.38
2022-12-03T13:55:56.405Z,4.33
2022-12-03T13:58:24.642Z,4.31
2022-12-03T14:00:52.878Z,4.30
2022-12-03T14:03:21.197Z,4.27
2022-12-03T14:05:50.708Z,4.23
2022-12-03T14:08:18.945Z,4.17
2022-12-03T14:10:47.277Z,4.13
2022-12-03T14:13:15.520Z,4.09
2022-12-03T14:15:43.747Z,4.07
2022-12-03T14:18:11.930Z,4.04
2022-12-03T14:20:40.094Z,4.02
2022-12-03T14:23:09.691Z,3.99
2022-12-03T14:25:37.842Z,3.97
2022-12-03T14:28:08.680Z,3.96
2022-12-03T14:30:36.994Z,3.94
2022-12-03T14:33:05.521Z,3.92
2022-12-03T14:35:33.748Z,3.90
2022-12-03T14:38:01.939Z,3.85
2022-12-03T14:40:31.447Z,3.81
2022-12-03T14:42:59.707Z,3.75
2022-12-03T14:45:30.082Z,3.72
2022-12-03T14:47:58.304Z,3.65
2022-12-03T14:50:26.465Z,3.60
2022-12-03T14:52:54.845Z,3.57
2022-12-03T14:55:24.095Z,3.53
2022-12-03T14:57:53.751Z,3.49
2022-12-03T15:00:23.481Z,3.46
2022-12-03T15:02:51.700Z,3.42
2022-12-03T15:05:26.416Z,3.39
2022-12-03T15:07:56.790Z,3.34
2022-12-03T15:10:25.005Z,3.31
2022-12-03T15:12:54.847Z,3.28
2022-12-03T15:15:23.027Z,3.24
2022-12-03T15:17:51.242Z,3.22
2022-12-03T15:20:19.775Z,3.19
2022-12-03T15:22:48.036Z,3.17
2022-12-03T15:25:18.152Z,3.16
2022-12-03T15:27:46.492Z,3.10
2022-12-03T15:30:16.689Z,3.05
2022-12-03T15:32:44.913Z,3.05
2022-12-03T15:35:17.628Z,3.06
2022-12-03T15:37:46.013Z,3.10
2022-12-03T15:40:15.197Z,3.15
2022-12-03T15:42:43.377Z,3.18
2022-12-03T15:45:15.361Z,3.20
2022-12-03T15:47:45.555Z,3.22
2022-12-03T15:50:14.350Z,3.23
2022-12-03T15:52:43.127Z,3.24
2022-12-03T15:55:12.267Z,3.24
2022-12-03T15:57:40.495Z,3.23
2022-12-03T16:00:12.725Z,3.23
2022-12-03T16:02:41.064Z,3.20
2022-12-03T16:05:14.262Z,3.15
2022-12-03T16:07:42.579Z,3.06
2022-12-03T16:10:12.285Z,3.00
2022-12-03T16:12:40.497Z,2.95
2022-12-03T16:15:10.004Z,2.90
2022-12-03T16:17:38.221Z,2.93
2022-12-03T16:20:08.643Z,2.92
2022-12-03T16:22:38.193Z,2.94
2022-12-03T16:25:07.285Z,2.95
2022-12-03T16:27:37.028Z,3.00
2022-12-03T16:30:07.838Z,3.03
2022-12-03T16:32:36.055Z,3.07
2022-12-03T16:35:04.663Z,3.12
2022-12-03T16:37:33.562Z,3.16
2022-12-03T16:40:04.194Z,3.19
2022-12-03T16:42:32.370Z,3.21
2022-12-03T16:45:22.964Z,3.23
2022-12-03T16:47:51.215Z,3.23
2022-12-03T16:50:27.414Z,3.25
2022-12-03T16:52:57.552Z,3.26
2022-12-03T16:55:27.282Z,3.28
2022-12-03T16:57:55.507Z,3.29
2022-12-03T17:00:25.803Z,3.30
2022-12-03T17:02:54.090Z,3.29
2022-12-03T17:05:22.343Z,3.32
2022-12-03T17:07:50.637Z,3.32
2022-12-03T17:10:19.092Z,3.30
2022-12-03T17:13:08.694Z,3.33
2022-12-03T17:15:37.666Z,3.33
2022-12-03T17:18:07.059Z,3.33
2022-12-03T17:20:37.404Z,3.34
2022-12-03T17:23:05.757Z,3.34
2022-12-03T17:25:34.407Z,3.33
2022-12-03T17:28:04.110Z,3.34
2022-12-03T17:30:32.390Z,3.34
2022-12-03T17:33:00.592Z,3.34
2022-12-03T17:35:28.837Z,3.37
2022-12-03T17:37:57.184Z,3.38
2022-12-03T17:40:25.415Z,3.40
2022-12-03T17:42:53.603Z,3.41
2022-12-03T17:45:23.227Z,3.42
2022-12-03T17:47:51.440Z,3.45
2022-12-03T17:50:19.938Z,3.45
2022-12-03T17:52:48.612Z,3.44
2022-12-03T17:55:30.946Z,3.47
2022-12-03T17:58:04.783Z,3.47
2022-12-03T18:00:35.765Z,3.47
2022-12-03T18:03:04.176Z,3.47
2022-12-03T18:05:34.715Z,3.46
2022-12-03T18:08:11.269Z,3.43
2022-12-03T18:10:41.470Z,3.46
2022-12-03T18:13:14.965Z,3.47
2022-12-03T18:16:00.051Z,3.48
2022-12-03T18:18:36.121Z,3.26
2022-12-03T18:21:18.526Z,3.45
2022-12-03T18:23:56.723Z,3.33
2022-12-03T18:26:26.610Z,3.41
2022-12-03T18:28:55.388Z,3.42
2022-12-03T18:31:27.285Z,3.40
2022-12-03T18:33:55.971Z,3.31
2022-12-03T18:36:32.478Z,3.38
2022-12-03T18:39:03.327Z,3.33
2022-12-03T18:41:35.327Z,3.34
2022-12-03T18:44:05.411Z,3.38
2022-12-03T18:46:54.728Z,3.37
2022-12-03T18:49:28.041Z,3.36
2022-12-03T18:51:59.736Z,3.29
2022-12-03T18:57:21.166Z,3.26
2022-12-03T18:59:50.955Z,3.28
2022-12-03T19:07:55.607Z,3.23
2022-12-03T19:10:30.332Z,3.27
2022-12-03T19:13:08.196Z,3.26
2022-12-03T19:15:41.586Z,3.20
2022-12-03T19:18:17.083Z,3.21
2022-12-03T19:20:47.144Z,3.20
2022-12-03T19:23:26.246Z,3.24
2022-12-03T19:26:00.908Z,3.12
2022-12-03T19:28:35.193Z,3.22
2022-12-03T19:31:10.022Z,3.17
2022-12-03T19:33:49.237Z,3.20
2022-12-03T19:36:26.010Z,3.22
2022-12-03T19:39:02.958Z,3.20
2022-12-03T19:41:32.693Z,3.19
2022-12-03T19:44:10.794Z,3.12
2022-12-03T19:46:45.413Z,3.15
2022-12-03T19:49:21.488Z,3.17
2022-12-03T19:51:51.428Z,3.11
2022-12-03T19:54:21.890Z,3.05
2022-12-03T19:57:03.699Z,3.06
2022-12-03T19:59:33.389Z,3.16
2022-12-03T20:02:02.709Z,3.11
2022-12-03T20:04:32.632Z,3.14
2022-12-03T20:07:02.596Z,3.13
2022-12-03T20:09:31.567Z,3.13
2022-12-03T20:12:03.698Z,3.00
2022-12-03T20:14:39.325Z,2.98
2022-12-03T20:17:14.450Z,3.10
2022-12-03T20:19:57.182Z,2.89
2022-12-03T20:22:27.795Z,3.01
2022-12-03T20:25:03.528Z,3.03
2022-12-03T20:27:40.543Z,3.03
2022-12-03T20:30:15.896Z,3.03
2022-12-03T20:32:51.759Z,3.03
2022-12-03T20:35:33.188Z,3.01
2022-12-03T20:38:06.836Z,2.98
2022-12-03T20:40:43.699Z,3.02
2022-12-03T20:43:22.052Z,3.02
2022-12-03T20:46:06.993Z,2.95
2022-12-03T20:48:40.469Z,2.93
2022-12-03T20:51:16.302Z,2.87
2022-12-03T20:53:50.341Z,2.86
2022-12-03T20:56:26.979Z,2.80
2022-12-03T21:01:51.107Z,2.83
2022-12-03T21:04:26.802Z,2.76
2022-12-03T21:06:56.764Z,2.74
2022-12-03T21:09:25.276Z,2.71
2022-12-03T21:11:55.836Z,2.77
2022-12-03T21:14:26.788Z,2.78
2022-12-03T21:17:11.938Z,2.67
2022-12-03T21:19:44.498Z,2.78
2022-12-03T21:22:14.789Z,2.74
2022-12-03T21:24:43.777Z,2.75
2022-12-03T21:27:18.450Z,2.66
2022-12-03T21:29:58.669Z,2.71
2022-12-03T21:32:27.580Z,2.60
2022-12-03T21:35:02.151Z,2.70
2022-12-03T21:37:43.449Z,2.70
2022-12-03T21:40:16.165Z,2.67
2022-12-03T21:42:48.831Z,2.58
2022-12-03T21:45:21.669Z,2.63
2022-12-03T21:47:59.250Z,2.62
2022-12-03T21:50:29.073Z,2.67
2022-12-03T21:53:07.436Z,2.68
2022-12-03T21:55:39.791Z,2.65
2022-12-03T21:58:11.664Z,2.63
2022-12-03T22:00:42.775Z,2.60
2022-12-03T22:03:20.196Z,2.68
2022-12-03T22:05:54.021Z,2.67
2022-12-03T22:08:28.924Z,2.64
2022-12-03T22:10:59.326Z,2.70
2022-12-03T22:13:27.816Z,2.62
2022-12-03T22:15:57.399Z,2.62
2022-12-03T22:18:26.231Z,2.69
2022-12-03T22:20:57.538Z,2.69
2022-12-03T22:23:28.056Z,2.69
2022-12-03T22:26:13.358Z,2.67
2022-12-03T22:28:46.344Z,2.70
2022-12-03T22:31:16.960Z,2.70
2022-12-03T22:33:50.718Z,2.72
2022-12-03T22:36:25.114Z,2.70
2022-12-03T22:39:04.633Z,2.75
2022-12-03T22:41:43.265Z,2.74
2022-12-03T22:44:14.105Z,2.75
2022-12-03T22:46:45.027Z,2.75
2022-12-03T22:49:16.492Z,2.78
2022-12-03T22:51:48.352Z,2.70
2022-12-03T22:54:24.226Z,2.80
2022-12-03T22:56:55.994Z,2.79
2022-12-03T22:59:25.862Z,2.72
2022-12-03T23:02:10.740Z,2.80
2022-12-03T23:04:46.234Z,2.78
2022-12-03T23:07:17.238Z,2.78
2022-12-03T23:09:53.335Z,2.75
2022-12-03T23:12:26.594Z,2.76
2022-12-03T23:14:58.932Z,2.72
2022-12-03T23:17:27.892Z,2.69
2022-12-03T23:19:57.829Z,2.70
2022-12-03T23:22:26.752Z,2.71
2022-12-03T23:25:01.350Z,2.74
2022-12-03T23:27:37.363Z,2.71
2022-12-03T23:30:14.323Z,2.68
2022-12-03T23:32:45.258Z,2.69
2022-12-03T23:35:16.983Z,2.70
2022-12-03T23:37:46.876Z,2.70
2022-12-03T23:40:19.657Z,2.67
2022-12-03T23:42:55.778Z,2.72
2022-12-03T23:45:29.128Z,2.72
2022-12-03T23:48:04.343Z,2.70
2022-12-03T23:50:35.186Z,2.67
2022-12-03T23:53:06.431Z,2.65
2022-12-03T23:55:46.578Z,2.68
2022-12-03T23:58:20.550Z,2.67
